createdAt,value
2022-12-22T00:00:56.092Z,97143.31
2022-12-22T00:02:19.222Z,97140.66
2022-12-22T00:03:39.527Z,97138.53
2022-12-22T00:05:03.411Z,97135.88
2022-12-22T00:06:28.451Z,97140.06
2022-12-22T00:07:48.325Z,97136.31
2022-12-22T00:09:08.122Z,97138.44
2022-12-22T00:10:28.647Z,97140.25
2022-12-22T00:11:49.056Z,97138.41
2022-12-22T00:13:08.974Z,97138.41
2022-12-22T00:14:30.465Z,97151.03
2022-12-22T00:15:53.796Z,97142.00
2022-12-22T00:17:15.663Z,97144.06
2022-12-22T00:18:35.857Z,97147.00
2022-12-22T00:19:55.786Z,97143.53
2022-12-22T00:21:15.791Z,97145.09
2022-12-22T00:22:41.036Z,97147.03
2022-12-22T00:24:01.383Z,97142.63
2022-12-22T00:25:21.755Z,97141.88
2022-12-22T00:26:42.759Z,97145.34
2022-12-22T00:28:03.147Z,97141.66
2022-12-22T00:29:23.428Z,97142.78
2022-12-22T00:30:43.729Z,97140.66
2022-12-22T00:32:04.932Z,97146.75
2022-12-22T00:33:25.464Z,97149.13
2022-12-22T00:34:46.744Z,97147.03
2022-12-22T00:36:07.128Z,97143.84
2022-12-22T00:37:33.597Z,97152.81
2022-12-22T00:38:54.017Z,97138.03
2022-12-22T00:40:13.897Z,97142.25
2022-12-22T00:41:33.872Z,97136.97
2022-12-22T00:42:54.489Z,97144.09
2022-12-22T00:44:14.537Z,97140.94
2022-12-22T00:45:34.451Z,97136.16
2022-12-22T00:46:58.413Z,97132.72
2022-12-22T00:48:19.361Z,97138.53
2022-12-22T00:49:42.908Z,97134.56
2022-12-22T00:51:03.156Z,97130.06
2022-12-22T00:52:23.510Z,97140.13
2022-12-22T00:53:43.966Z,97128.97
2022-12-22T00:55:04.068Z,97135.78
2022-12-22T00:56:25.450Z,97132.50
2022-12-22T00:57:46.353Z,97135.16
2022-12-22T00:59:08.038Z,97138.81
2022-12-22T01:00:34.675Z,97135.13
2022-12-22T01:01:55.103Z,97132.47
2022-12-22T01:03:15.400Z,97131.91
2022-12-22T01:04:35.554Z,97139.72
2022-12-22T01:05:55.999Z,97136.53
2022-12-22T01:07:16.643Z,97137.81
2022-12-22T01:08:37.188Z,97142.81
2022-12-22T01:09:57.557Z,97142.28
2022-12-22T01:11:17.824Z,97143.88
2022-12-22T01:12:42.639Z,97140.22
2022-12-22T01:14:03.060Z,97137.84
2022-12-22T01:15:30.118Z,97138.66
2022-12-22T01:16:50.360Z,97136.03
2022-12-22T01:18:10.291Z,97131.31
2022-12-22T01:19:30.313Z,97135.03
2022-12-22T01:20:53.361Z,97141.94
2022-12-22T01:22:14.640Z,97138.31
2022-12-22T01:23:34.968Z,97133.59
2022-12-22T01:24:54.668Z,97137.34
2022-12-22T01:26:14.488Z,97130.50
2022-12-22T01:27:35.520Z,97128.94
2022-12-22T01:28:55.697Z,97131.59
2022-12-22T01:30:15.716Z,97133.16
2022-12-22T01:31:51.382Z,97130.00
2022-12-22T01:33:11.280Z,97129.50
2022-12-22T01:34:31.021Z,97126.88
2022-12-22T01:35:53.391Z,97123.97
2022-12-22T01:37:13.322Z,97129.00
2022-12-22T01:38:33.848Z,97134.53
2022-12-22T01:39:53.785Z,97125.09
2022-12-22T01:41:16.914Z,97121.66
2022-12-22T01:42:37.338Z,97131.69
2022-12-22T01:43:57.815Z,97126.41
2022-12-22T01:45:32.381Z,97124.31
2022-12-22T01:47:01.511Z,97121.13
2022-12-22T01:48:21.552Z,97119.03
2022-12-22T01:49:49.050Z,97115.84
2022-12-22T01:51:08.913Z,97110.06
2022-12-22T01:52:32.251Z,97106.88
2022-12-22T01:53:53.432Z,97109.25
2022-12-22T01:55:16.576Z,97114.78
2022-12-22T01:56:36.679Z,97111.09
2022-12-22T01:57:56.766Z,97114.78
2022-12-22T01:59:19.772Z,97108.47
2022-12-22T02:00:40.267Z,97110.56
2022-12-22T02:02:01.732Z,97114.25
2022-12-22T02:03:22.128Z,97114.53
2022-12-22T02:04:46.354Z,97103.94
2022-12-22T02:06:33.271Z,97116.34
2022-12-22T02:08:06.493Z,97112.13
2022-12-22T02:09:41.528Z,97112.91
2022-12-22T02:11:17.495Z,97113.72
2022-12-22T02:12:42.956Z,97111.59
2022-12-22T02:14:08.865Z,97110.81
2022-12-22T02:15:44.336Z,97102.09
2022-12-22T02:17:30.761Z,97101.81
2022-12-22T02:19:14.043Z,97103.38
2022-12-22T02:20:47.160Z,97098.91
2022-12-22T02:22:22.969Z,97103.69
2022-12-22T02:23:54.058Z,97107.63
2022-12-22T02:25:25.058Z,97099.44
2022-12-22T02:26:47.234Z,97096.50
2022-12-22T02:28:10.563Z,97104.19
2022-12-22T02:29:33.652Z,97099.94
2022-12-22T02:30:55.111Z,97102.84
2022-12-22T02:32:16.181Z,97098.88
2022-12-22T02:33:38.544Z,97094.38
2022-12-22T02:34:58.437Z,97097.56
2022-12-22T02:36:31.842Z,97098.63
2022-12-22T02:37:54.754Z,97096.75
2022-12-22T02:39:21.003Z,97098.88
2022-12-22T02:41:06.133Z,97100.72
2022-12-22T02:42:35.029Z,97102.56
2022-12-22T02:44:12.225Z,97100.72
2022-12-22T02:45:32.347Z,97102.56
2022-12-22T02:46:57.808Z,97096.25
2022-12-22T02:48:27.091Z,97099.47
2022-12-22T02:49:57.854Z,97106.88
2022-12-22T02:51:24.745Z,97104.22
2022-12-22T02:52:52.776Z,97098.69
2022-12-22T02:54:13.996Z,97104.19
2022-12-22T02:55:35.655Z,97104.94
2022-12-22T02:56:56.924Z,97109.88
2022-12-22T02:58:20.183Z,97108.59
2022-12-22T02:59:39.954Z,97108.59
2022-12-22T03:00:59.750Z,97106.19
2022-12-22T03:02:19.932Z,97107.75
2022-12-22T03:03:40.444Z,97107.75
2022-12-22T03:05:00.467Z,97109.34
2022-12-22T03:06:20.275Z,97108.28
2022-12-22T03:07:40.160Z,97106.72
2022-12-22T03:09:00.229Z,97111.47
2022-12-22T03:10:20.090Z,97113.03
2022-12-22T03:11:39.910Z,97112.25
2022-12-22T03:13:00.240Z,97104.34
2022-12-22T03:14:20.168Z,97108.06
2022-12-22T03:15:40.184Z,97109.38
2022-12-22T03:17:00.176Z,97108.84
2022-12-22T03:18:25.342Z,97105.19
2022-12-22T03:19:45.260Z,97104.66
2022-12-22T03:21:05.659Z,97101.50
2022-12-22T03:22:25.884Z,97101.19
2022-12-22T03:23:45.648Z,97101.44
2022-12-22T03:25:06.048Z,97101.91
2022-12-22T03:26:07.600Z,97103.28
2022-12-22T03:27:09.192Z,97104.59
2022-12-22T03:28:11.485Z,97103.06
2022-12-22T03:29:13.023Z,97107.81
2022-12-22T03:30:14.722Z,97102.53
2022-12-22T03:31:16.470Z,97104.63
2022-12-22T03:32:18.069Z,97107.28
2022-12-22T03:33:19.632Z,97106.25
2022-12-22T03:34:21.212Z,97106.00
2022-12-22T03:35:22.798Z,97105.78
2022-12-22T03:36:24.430Z,97110.78
2022-12-22T03:37:25.953Z,97105.25
2022-12-22T03:38:28.197Z,97101.03
2022-12-22T03:39:29.714Z,97111.59
2022-12-22T03:40:32.343Z,97102.13
2022-12-22T03:41:52.409Z,97103.19
2022-12-22T03:43:12.521Z,97102.66
2022-12-22T03:44:32.726Z,97106.63
2022-12-22T03:45:53.124Z,97095.53
2022-12-22T03:46:54.831Z,97106.34
2022-12-22T03:47:56.413Z,97101.06
2022-12-22T03:49:11.074Z,97104.25
2022-12-22T03:50:12.771Z,97111.13
2022-12-22T03:51:14.315Z,97098.41
2022-12-22T03:52:15.896Z,97103.69
2022-12-22T03:53:17.659Z,97095.00
2022-12-22T03:54:22.200Z,97097.63
2022-12-22T03:55:23.773Z,97105.53
2022-12-22T03:56:25.438Z,97104.78
2022-12-22T03:57:26.967Z,97104.50
2022-12-22T03:58:29.113Z,97104.78
2022-12-22T03:59:30.619Z,97107.94
2022-12-22T04:00:32.241Z,97107.69
2022-12-22T04:01:38.362Z,97102.91
2022-12-22T04:02:40.125Z,97113.75
2022-12-22T04:03:41.738Z,97108.22
2022-12-22T04:04:43.264Z,97112.41
2022-12-22T04:05:45.745Z,97114.00
2022-12-22T04:06:47.797Z,97110.56
2022-12-22T04:07:49.324Z,97109.53
2022-12-22T04:08:51.244Z,97109.53
2022-12-22T04:10:11.340Z,97109.53
2022-12-22T04:11:33.400Z,97112.97
2022-12-22T04:12:53.485Z,97108.72
2022-12-22T04:13:54.985Z,97107.94
2022-12-22T04:14:56.538Z,97109.53
2022-12-22T04:15:58.076Z,97104.78
2022-12-22T04:16:59.703Z,97112.16
2022-12-22T04:18:01.312Z,97110.31
2022-12-22T04:19:03.088Z,97106.84
2022-12-22T04:20:05.249Z,97111.06
2022-12-22T04:21:06.781Z,97109.41
2022-12-22T04:22:08.317Z,97108.97
2022-12-22T04:23:10.558Z,97103.88
2022-12-22T04:24:13.237Z,97110.16
2022-12-22T04:25:15.369Z,97108.00
2022-12-22T04:26:18.999Z,97119.78
2022-12-22T04:27:21.048Z,97124.16
2022-12-22T04:28:22.670Z,97123.03
2022-12-22T04:29:24.348Z,97123.47
2022-12-22T04:30:25.926Z,97120.38
2022-12-22T04:31:27.699Z,97123.03
2022-12-22T04:32:29.200Z,97120.84
2022-12-22T04:33:30.761Z,97115.50
2022-12-22T04:34:32.282Z,97121.19
2022-12-22T04:35:33.830Z,97118.22
2022-12-22T04:36:35.539Z,97122.78
2022-12-22T04:37:37.424Z,97123.88
2022-12-22T04:38:39.056Z,97119.09
2022-12-22T04:39:40.590Z,97124.63
2022-12-22T04:40:42.154Z,97126.69
2022-12-22T04:41:44.702Z,97124.53
2022-12-22T04:42:46.257Z,97125.56
2022-12-22T04:43:47.803Z,97125.28
2022-12-22T04:44:49.868Z,97127.44
2022-12-22T04:45:56.207Z,97124.97
2022-12-22T04:46:57.813Z,97126.06
2022-12-22T04:47:59.568Z,97130.38
2022-12-22T04:49:01.457Z,97127.28
2022-12-22T04:50:03.245Z,97130.78
2022-12-22T04:51:05.142Z,97127.44
2022-12-22T04:52:07.193Z,97125.91
2022-12-22T04:53:09.115Z,97113.28
2022-12-22T04:54:11.420Z,97116.44
2022-12-22T04:55:12.961Z,97120.38
2022-12-22T04:56:14.484Z,97124.84
2022-12-22T04:57:16.610Z,97116.69
2022-12-22T04:58:18.176Z,97121.72
2022-12-22T04:59:19.777Z,97118.53
2022-12-22T05:00:21.355Z,97118.25
2022-12-22T05:01:23.055Z,97114.06
2022-12-22T05:02:24.691Z,97113.56
2022-12-22T05:03:26.333Z,97122.78
2022-12-22T05:04:28.030Z,97117.03
2022-12-22T05:05:29.521Z,97109.09
2022-12-22T05:06:31.170Z,97111.66
2022-12-22T05:07:32.733Z,97110.06
2022-12-22T05:08:34.562Z,97105.34
2022-12-22T05:09:36.071Z,97110.94
2022-12-22T05:10:37.875Z,97104.88
2022-12-22T05:11:39.517Z,97103.31
2022-12-22T05:12:56.276Z,97102.00
2022-12-22T05:14:02.075Z,97103.81
2022-12-22T05:15:07.722Z,97103.19
2022-12-22T05:16:15.342Z,97098.50
2022-12-22T05:17:17.017Z,97093.53
2022-12-22T05:18:18.576Z,97102.78
2022-12-22T05:19:20.172Z,97098.66
2022-12-22T05:20:22.129Z,97101.88
2022-12-22T05:21:23.831Z,97103.50
2022-12-22T05:22:25.403Z,97094.56
2022-12-22T05:23:26.964Z,97091.41
2022-12-22T05:24:28.472Z,97094.63
2022-12-22T05:25:35.038Z,97095.94
2022-12-22T05:26:37.207Z,97096.50
2022-12-22T05:27:38.948Z,97096.50
2022-12-22T05:28:45.170Z,97091.78
2022-12-22T05:29:46.693Z,97092.59
2022-12-22T05:30:48.273Z,97088.38
2022-12-22T05:31:49.837Z,97081.78
2022-12-22T05:32:51.400Z,97085.75
2022-12-22T05:33:53.147Z,97088.91
2022-12-22T05:34:54.706Z,97091.53
2022-12-22T05:35:56.264Z,97089.44
2022-12-22T05:36:57.839Z,97095.25
2022-12-22T05:37:59.404Z,97093.09
2022-12-22T05:39:00.980Z,97094.09
2022-12-22T05:40:03.078Z,97098.31
2022-12-22T05:41:05.049Z,97101.91
2022-12-22T05:42:06.560Z,97105.00
2022-12-22T05:43:08.127Z,97102.25
2022-12-22T05:44:09.636Z,97100.88
2022-12-22T05:45:20.320Z,97098.00
2022-12-22T05:46:23.636Z,97100.06
2022-12-22T05:47:25.221Z,97106.63
2022-12-22T05:48:32.154Z,97106.31
2022-12-22T05:49:36.984Z,97107.28
2022-12-22T05:50:39.034Z,97106.13
2022-12-22T05:51:40.572Z,97109.25
2022-12-22T05:52:42.794Z,97116.09
2022-12-22T05:53:44.298Z,97113.44
2022-12-22T05:54:45.891Z,97118.66
2022-12-22T05:55:47.807Z,97116.03
2022-12-22T05:56:49.379Z,97115.50
2022-12-22T05:57:50.947Z,97119.78
2022-12-22T05:58:52.592Z,97120.38
2022-12-22T05:59:54.235Z,97126.13
2022-12-22T06:00:58.283Z,97125.84
2022-12-22T06:01:59.916Z,97128.47
2022-12-22T06:03:01.639Z,97126.66
2022-12-22T06:04:03.617Z,97124.53
2022-12-22T06:05:06.302Z,97134.47
2022-12-22T06:06:07.976Z,97136.50
2022-12-22T06:07:09.774Z,97133.88
2022-12-22T06:08:11.324Z,97128.06
2022-12-22T06:09:12.865Z,97127.50
2022-12-22T06:10:15.488Z,97130.13
2022-12-22T06:11:19.331Z,97134.88
2022-12-22T06:12:20.910Z,97137.47
2022-12-22T06:13:23.202Z,97131.13
2022-12-22T06:14:24.790Z,97125.84
2022-12-22T06:15:26.377Z,97136.97
2022-12-22T06:16:27.925Z,97129.63
2022-12-22T06:17:29.552Z,97135.44
2022-12-22T06:18:31.096Z,97133.09
2022-12-22T06:19:32.648Z,97131.31
2022-12-22T06:20:34.241Z,97128.72
2022-12-22T06:21:35.790Z,97127.88
2022-12-22T06:22:37.397Z,97131.31
2022-12-22T06:23:38.954Z,97124.53
2022-12-22T06:24:40.507Z,97126.19
2022-12-22T06:25:42.217Z,97127.06
2022-12-22T06:26:43.897Z,97128.13
2022-12-22T06:27:46.836Z,97124.25
2022-12-22T06:28:48.434Z,97126.94
2022-12-22T06:29:50.042Z,97120.06
2022-12-22T06:30:51.709Z,97120.28
2022-12-22T06:31:53.395Z,97124.69
2022-12-22T06:32:54.999Z,97128.25
2022-12-22T06:33:56.525Z,97127.53
2022-12-22T06:34:58.034Z,97128.53
2022-12-22T06:36:04.628Z,97126.56
2022-12-22T06:37:06.205Z,97131.84
2022-12-22T06:38:07.778Z,97122.88
2022-12-22T06:39:09.373Z,97126.03
2022-12-22T06:40:11.371Z,97125.63
2022-12-22T06:41:12.899Z,97126.78
2022-12-22T06:42:33.027Z,97125.03
2022-12-22T06:43:34.579Z,97118.50
2022-12-22T06:44:36.135Z,97126.97
2022-12-22T06:45:42.637Z,97112.53
2022-12-22T06:46:44.362Z,97120.25
2022-12-22T06:47:46.054Z,97123.47
2022-12-22T06:48:48.016Z,97111.97
2022-12-22T06:49:49.749Z,97119.91
2022-12-22T06:50:51.446Z,97116.25
2022-12-22T06:51:53.135Z,97115.19
2022-12-22T06:52:54.783Z,97116.53
2022-12-22T06:53:56.305Z,97119.75
2022-12-22T06:54:57.839Z,97113.69
2022-12-22T06:55:59.386Z,97117.66
2022-12-22T06:57:01.004Z,97116.38
2022-12-22T06:58:02.960Z,97118.47
2022-12-22T06:59:04.828Z,97113.75
2022-12-22T07:00:06.941Z,97116.38
2022-12-22T07:01:08.495Z,97122.19
2022-12-22T07:02:11.648Z,97117.44
2022-12-22T07:03:13.500Z,97120.88
2022-12-22T07:04:19.882Z,97116.88
2022-12-22T07:05:23.869Z,97108.97
2022-12-22T07:06:25.663Z,97111.59
2022-12-22T07:07:27.221Z,97100.78
2022-12-22T07:08:29.341Z,97113.16
2022-12-22T07:09:30.972Z,97113.44
2022-12-22T07:10:50.862Z,97118.44
2022-12-22T07:11:52.462Z,97116.28
2022-12-22T07:12:54.204Z,97106.75
2022-12-22T07:13:55.782Z,97113.59
2022-12-22T07:14:57.381Z,97116.75
2022-12-22T07:16:01.126Z,97122.00
2022-12-22T07:17:03.638Z,97123.81
2022-12-22T07:18:05.328Z,97113.75
2022-12-22T07:19:06.986Z,97122.50
2022-12-22T07:20:09.053Z,97118.53
2022-12-22T07:21:13.177Z,97122.44
2022-12-22T07:22:14.752Z,97122.94
2022-12-22T07:23:16.360Z,97123.97
2022-12-22T07:24:23.198Z,97123.13
2022-12-22T07:25:24.734Z,97122.78
2022-12-22T07:26:26.345Z,97120.06
2022-12-22T07:27:27.885Z,97129.00
2022-12-22T07:28:31.954Z,97123.66
2022-12-22T07:29:33.560Z,97119.38
2022-12-22T07:30:36.797Z,97124.84
2022-12-22T07:31:38.365Z,97125.56
2022-12-22T07:32:39.940Z,97132.41
2022-12-22T07:33:41.618Z,97129.72
2022-12-22T07:34:43.195Z,97128.63
2022-12-22T07:35:44.969Z,97131.09
2022-12-22T07:36:46.531Z,97127.34
2022-12-22T07:37:49.028Z,97134.44
2022-12-22T07:38:51.938Z,97129.44
2022-12-22T07:39:53.477Z,97125.34
2022-12-22T07:41:04.502Z,97123.25
2022-12-22T07:42:26.859Z,97117.44
2022-12-22T07:43:28.353Z,97116.91
2022-12-22T07:44:29.887Z,97121.38
2022-12-22T07:45:31.468Z,97123.78
2022-12-22T07:46:36.177Z,97116.13
2022-12-22T07:47:37.976Z,97119.03
2022-12-22T07:48:57.949Z,97120.09
2022-12-22T07:50:17.823Z,97123.25
2022-12-22T07:51:19.325Z,97116.88
2022-12-22T07:52:20.873Z,97118.47
2022-12-22T07:53:22.487Z,97118.44
2022-12-22T07:54:24.584Z,97122.16
2022-12-22T07:55:27.905Z,97116.81
2022-12-22T07:56:30.122Z,97114.06
2022-12-22T07:57:31.748Z,97118.25
2022-12-22T07:58:33.588Z,97116.84
2022-12-22T07:59:35.258Z,97118.66
2022-12-22T08:00:36.788Z,97114.09
2022-12-22T08:01:40.041Z,97121.66
2022-12-22T08:02:41.797Z,97117.03
2022-12-22T08:03:43.374Z,97120.56
2022-12-22T08:04:45.163Z,97115.69
2022-12-22T08:05:46.757Z,97115.53
2022-12-22T08:06:48.331Z,97121.00
2022-12-22T08:07:51.872Z,97111.84
2022-12-22T08:08:53.435Z,97104.25
2022-12-22T08:09:55.549Z,97108.28
2022-12-22T08:10:57.107Z,97117.09
2022-12-22T08:12:07.624Z,97109.31
2022-12-22T08:13:09.213Z,97113.41
2022-12-22T08:14:10.785Z,97113.00
2022-12-22T08:15:12.404Z,97115.25
2022-12-22T08:16:14.390Z,97107.13
2022-12-22T08:17:16.207Z,97106.06
2022-12-22T08:18:17.795Z,97103.56
2022-12-22T08:19:19.402Z,97102.97
2022-12-22T08:20:20.954Z,97110.31
2022-12-22T08:21:23.138Z,97113.38
2022-12-22T08:22:25.198Z,97110.66
2022-12-22T08:23:26.803Z,97105.34
2022-12-22T08:24:28.963Z,97102.69
2022-12-22T08:25:32.446Z,97113.69
2022-12-22T08:26:38.238Z,97113.31
2022-12-22T08:27:47.443Z,97110.09
2022-12-22T08:28:58.599Z,97113.53
2022-12-22T08:30:02.302Z,97114.16
2022-12-22T08:31:04.344Z,97109.97
2022-12-22T08:32:06.008Z,97107.66
2022-12-22T08:33:07.650Z,97110.59
2022-12-22T08:34:12.830Z,97110.38
2022-12-22T08:35:14.372Z,97107.78
2022-12-22T08:36:16.368Z,97109.78
2022-12-22T08:37:22.647Z,97098.81
2022-12-22T08:38:24.231Z,97102.31
2022-12-22T08:39:27.897Z,97103.75
2022-12-22T08:40:32.410Z,97101.50
2022-12-22T08:41:51.221Z,97100.34
2022-12-22T08:42:59.248Z,97097.31
2022-12-22T08:44:01.266Z,97092.78
2022-12-22T08:45:03.296Z,97099.69
2022-12-22T08:46:04.953Z,97096.34
2022-12-22T08:47:10.246Z,97092.25
2022-12-22T08:48:16.626Z,97098.19
2022-12-22T08:49:18.797Z,97095.19
2022-12-22T08:50:20.439Z,97091.44
2022-12-22T08:51:22.050Z,97093.19
2022-12-22T08:52:23.580Z,97093.13
2022-12-22T08:54:02.523Z,97090.06
2022-12-22T08:54:46.964Z,97090.19
2022-12-22T08:55:55.790Z,97084.69
2022-12-22T08:56:58.706Z,97082.22
2022-12-22T08:58:00.448Z,97083.97
2022-12-22T08:59:07.679Z,97081.59
2022-12-22T09:00:11.195Z,97077.91
2022-12-22T09:01:21.615Z,97083.06
2022-12-22T09:02:23.249Z,97078.84
2022-12-22T09:03:25.004Z,97081.75
2022-12-22T09:04:26.662Z,97081.00
2022-12-22T09:05:28.176Z,97071.75
2022-12-22T09:06:36.290Z,97072.56
2022-12-22T09:07:41.940Z,97075.63
2022-12-22T09:08:43.512Z,97070.41
2022-12-22T09:09:45.452Z,97065.34
2022-12-22T09:10:47.099Z,97063.66
2022-12-22T09:11:48.755Z,97058.50
2022-12-22T09:12:51.424Z,97058.03
2022-12-22T09:13:55.404Z,97053.09
2022-12-22T09:14:57.040Z,97055.06
2022-12-22T09:15:58.662Z,97047.94
2022-12-22T09:17:00.595Z,97046.56
2022-12-22T09:18:02.248Z,97047.78
2022-12-22T09:19:04.693Z,97038.50
2022-12-22T09:20:07.021Z,97038.09
2022-12-22T09:21:08.608Z,97029.84
2022-12-22T09:22:11.380Z,97033.97
2022-12-22T09:23:12.947Z,97037.50
2022-12-22T09:24:14.685Z,97037.50
2022-12-22T09:25:18.232Z,97040.41
2022-12-22T09:26:21.859Z,97033.63
2022-12-22T09:27:23.418Z,97033.50
2022-12-22T09:28:24.979Z,97030.97
2022-12-22T09:29:26.541Z,97036.50
2022-12-22T09:30:28.108Z,97028.44
2022-12-22T09:31:29.921Z,97025.28
2022-12-22T09:32:31.535Z,97021.72
2022-12-22T09:33:34.248Z,97022.50
2022-12-22T09:34:35.766Z,97029.75
2022-12-22T09:35:41.487Z,97020.81
2022-12-22T09:36:43.109Z,97026.72
2022-12-22T09:37:44.680Z,97021.34
2022-12-22T09:38:46.261Z,97012.03
2022-12-22T09:39:48.672Z,97012.66
2022-12-22T09:40:50.242Z,97013.97
2022-12-22T09:41:54.813Z,97006.88
2022-12-22T09:42:58.345Z,97011.75
2022-12-22T09:44:13.451Z,97010.31
2022-12-22T09:45:20.162Z,97005.22
2022-12-22T09:46:25.568Z,97009.47
2022-12-22T09:47:37.887Z,96999.09
2022-12-22T09:48:39.540Z,97002.03
2022-12-22T09:49:41.137Z,96997.28
2022-12-22T09:50:42.778Z,96991.97
2022-12-22T09:51:48.203Z,96987.97
2022-12-22T09:52:54.569Z,96989.09
2022-12-22T09:54:01.198Z,96981.13
2022-12-22T09:55:13.020Z,96981.72
2022-12-22T09:56:16.942Z,96984.09
2022-12-22T09:57:18.504Z,96976.97
2022-12-22T09:58:32.574Z,96984.56
2022-12-22T09:59:34.130Z,96978.03
2022-12-22T10:00:36.927Z,96980.59
2022-12-22T10:01:53.705Z,96973.28
2022-12-22T10:03:21.290Z,96976.41
2022-12-22T10:04:54.938Z,96971.97
2022-12-22T10:06:23.574Z,96964.78
2022-12-22T10:07:38.424Z,96968.06
2022-12-22T10:08:41.118Z,96966.00
2022-12-22T10:09:51.505Z,96966.56
2022-12-22T10:10:54.844Z,96964.50
2022-12-22T10:12:03.669Z,96957.50
2022-12-22T10:13:06.659Z,96957.31
2022-12-22T10:14:10.864Z,96956.72
2022-12-22T10:15:18.285Z,96947.47
2022-12-22T10:16:28.214Z,96950.78
2022-12-22T10:17:33.277Z,96950.06
2022-12-22T10:18:35.514Z,96945.19
2022-12-22T10:19:37.070Z,96943.69
2022-12-22T10:20:39.894Z,96947.47
2022-12-22T10:21:46.612Z,96944.28
2022-12-22T10:22:53.194Z,96932.88
2022-12-22T10:23:54.808Z,96938.22
2022-12-22T10:24:57.215Z,96939.38
2022-12-22T10:27:28.675Z,96929.91
2022-12-22T10:28:38.705Z,96924.94
2022-12-22T10:29:40.278Z,96923.41
2022-12-22T10:30:42.133Z,96924.88
2022-12-22T10:32:05.171Z,96919.81
2022-12-22T10:33:11.684Z,96917.06
2022-12-22T10:34:15.903Z,96914.84
2022-12-22T10:35:17.558Z,96912.13
2022-12-22T10:36:24.273Z,96909.59
2022-12-22T10:37:40.135Z,96908.69
2022-12-22T10:39:02.031Z,96906.84
2022-12-22T10:40:33.581Z,96915.81
2022-12-22T10:41:48.592Z,96908.94
2022-12-22T10:42:55.925Z,96906.41
2022-12-22T10:43:59.718Z,96902.59
2022-12-22T10:45:01.400Z,96905.00
2022-12-22T10:46:04.460Z,96903.63
2022-12-22T10:47:18.003Z,96903.94
2022-12-22T10:48:28.416Z,96900.84
2022-12-22T10:50:48.484Z,96896.44
2022-12-22T10:52:10.397Z,96896.19
2022-12-22T10:53:12.049Z,96890.25
2022-12-22T10:54:36.014Z,96895.94
2022-12-22T10:55:39.348Z,96884.31
2022-12-22T10:56:40.965Z,96883.28
2022-12-22T10:57:42.539Z,96887.50
2022-12-22T10:58:52.235Z,96877.00
2022-12-22T10:59:57.391Z,96877.94
2022-12-22T11:01:05.717Z,96885.03
2022-12-22T11:02:49.003Z,96880.53
2022-12-22T11:03:50.800Z,96874.06
2022-12-22T11:04:53.491Z,96871.59
2022-12-22T11:05:55.012Z,96874.88
2022-12-22T11:06:58.690Z,96876.81
2022-12-22T11:08:14.986Z,96878.56
2022-12-22T11:09:33.141Z,96875.75
2022-12-22T11:10:42.665Z,96872.00
2022-12-22T11:11:44.172Z,96866.06
2022-12-22T11:13:05.348Z,96867.63
2022-12-22T11:14:16.573Z,96871.75
2022-12-22T11:15:34.399Z,96870.53
2022-12-22T11:17:00.494Z,96871.94
2022-12-22T11:18:12.184Z,96868.97
2022-12-22T11:19:47.796Z,96868.97
2022-12-22T11:21:01.030Z,96861.75
2022-12-22T11:22:28.556Z,96866.44
2022-12-22T11:23:46.498Z,96868.53
2022-12-22T11:25:03.194Z,96866.16
2022-12-22T11:26:31.373Z,96863.03
2022-12-22T11:27:51.448Z,96862.56
2022-12-22T11:29:12.766Z,96858.00
2022-12-22T11:30:20.072Z,96860.03
2022-12-22T11:31:27.502Z,96861.13
2022-12-22T11:32:53.640Z,96858.28
2022-12-22T11:34:27.176Z,96853.72
2022-12-22T11:36:09.846Z,96850.22
2022-12-22T11:37:48.494Z,96844.13
2022-12-22T11:39:04.359Z,96850.84
2022-12-22T11:40:13.463Z,96848.97
2022-12-22T11:41:52.537Z,96839.56
2022-12-22T11:43:22.554Z,96841.78
2022-12-22T11:44:42.749Z,96843.50
2022-12-22T11:46:10.658Z,96837.22
2022-12-22T11:47:29.575Z,96839.94
2022-12-22T11:48:55.911Z,96835.13
2022-12-22T11:50:58.121Z,96836.63
2022-12-22T11:52:02.249Z,96835.66
2022-12-22T11:53:45.394Z,96832.88
2022-12-22T11:55:11.772Z,96836.03
2022-12-22T11:56:22.648Z,96835.31
2022-12-22T11:58:01.631Z,96823.50
2022-12-22T11:59:35.572Z,96826.59
2022-12-22T12:01:16.248Z,96821.69
2022-12-22T12:02:37.754Z,96827.63
2022-12-22T12:03:48.954Z,96813.16
2022-12-22T12:05:09.322Z,96811.41
2022-12-22T12:06:34.690Z,96817.69
2022-12-22T12:07:50.988Z,96811.72
2022-12-22T12:09:18.009Z,96812.72
2022-12-22T12:10:27.810Z,96808.13
2022-12-22T12:11:54.149Z,96806.41
2022-12-22T12:13:04.600Z,96804.09
2022-12-22T12:14:19.754Z,96803.59
2022-12-22T12:15:41.558Z,96806.88
2022-12-22T12:16:54.138Z,96798.53
2022-12-22T12:18:13.588Z,96801.06
2022-12-22T12:19:44.120Z,96797.66
2022-12-22T12:20:55.463Z,96801.94
2022-12-22T12:22:12.145Z,96802.09
2022-12-22T12:23:44.701Z,96801.78
2022-12-22T12:25:25.828Z,96799.69
2022-12-22T12:26:31.146Z,96803.28
2022-12-22T12:28:03.350Z,96799.97
2022-12-22T12:29:13.623Z,96790.25
2022-12-22T12:32:05.482Z,96795.59
2022-12-22T12:33:42.836Z,96791.66
2022-12-22T12:34:48.568Z,96788.88
2022-12-22T12:36:28.008Z,96792.00
2022-12-22T12:37:34.399Z,96790.75
2022-12-22T12:39:07.585Z,96784.00
2022-12-22T12:40:19.226Z,96787.44
2022-12-22T12:41:33.329Z,96785.34
2022-12-22T12:42:42.414Z,96783.03
2022-12-22T12:43:45.132Z,96787.75
2022-12-22T12:44:47.661Z,96777.22
2022-12-22T12:45:50.229Z,96777.41
2022-12-22T12:46:52.386Z,96780.72
2022-12-22T12:47:54.527Z,96775.69
2022-12-22T12:48:56.391Z,96776.50
2022-12-22T12:50:02.177Z,96781.69
2022-12-22T12:51:42.353Z,96779.81
2022-12-22T12:52:48.565Z,96769.94
2022-12-22T12:54:42.709Z,96774.63
2022-12-22T12:55:50.321Z,96768.53
2022-12-22T12:56:59.589Z,96768.38
2022-12-22T12:58:04.241Z,96763.97
2022-12-22T12:59:07.623Z,96766.50
2022-12-22T13:00:32.485Z,96764.63
2022-12-22T13:01:40.483Z,96763.19
2022-12-22T13:02:57.211Z,96766.69
2022-12-22T13:04:04.324Z,96767.00
2022-12-22T13:05:12.479Z,96766.69
2022-12-22T13:06:50.992Z,96764.81
2022-12-22T13:08:08.204Z,96757.59
2022-12-22T13:10:54.507Z,96760.56
2022-12-22T13:12:13.708Z,96759.63
2022-12-22T13:13:22.874Z,96760.91
2022-12-22T13:15:01.433Z,96756.06
2022-12-22T13:16:03.059Z,96749.00
2022-12-22T13:18:02.290Z,96755.28
2022-12-22T13:19:12.457Z,96752.16
2022-12-22T13:20:17.671Z,96747.75
2022-12-22T13:22:52.864Z,96742.72
2022-12-22T13:24:24.090Z,96744.59
2022-12-22T13:25:40.480Z,96747.75
2022-12-22T13:26:44.480Z,96749.47
2022-12-22T13:27:46.198Z,96744.31
2022-12-22T13:28:54.764Z,96743.97
2022-12-22T13:29:56.568Z,96740.06
2022-12-22T13:31:01.427Z,96736.59
2022-12-22T13:32:19.401Z,96738.34
2022-12-22T13:33:25.576Z,96731.88
2022-12-22T13:35:04.266Z,96737.41
2022-12-22T13:36:01.277Z,96736.75
2022-12-22T13:37:14.677Z,96735.03
2022-12-22T13:38:34.901Z,96737.06
2022-12-22T13:39:36.436Z,96734.56
2022-12-22T13:40:43.439Z,96728.28
2022-12-22T13:41:47.851Z,96730.63
2022-12-22T13:42:53.078Z,96728.75
2022-12-22T13:44:01.254Z,96722.94
2022-12-22T13:45:03.730Z,96729.06
2022-12-22T13:46:05.955Z,96733.13
2022-12-22T13:47:14.766Z,96726.25
2022-12-22T13:48:20.891Z,96728.44
2022-12-22T13:49:58.696Z,96725.47
2022-12-22T13:50:54.211Z,96726.41
2022-12-22T13:52:00.285Z,96732.97
2022-12-22T13:53:09.549Z,96725.94
2022-12-22T13:54:20.580Z,96718.09
2022-12-22T13:55:28.242Z,96726.56